Terminal Aerodrome Forecast
Issued by NWS

Home | Current Version | Previous Version | Graphics & Text | Print | Product List | Glossary On
Versions: 1 2 3 4 5 6 7 8 9 10 11 12 13 14 15 16
374
FTUS43 KMPX 260520
TAFRNH
TAF
KRNH 260520Z 2606/2706 26013KT P6SM VCSH BKN060
     FM261200 28014G23KT P6SM SKC
     FM261600 29020G31KT P6SM BKN045
     FM270000 28006KT P6SM OVC050=

USA.gov is the U.S. government's official web portal to all federal, state and local government web resources and services.